sensor_id;sensor_type;location;lat;lon;timestamp;temperature;humidity
5588;DHT22;2816;49.778;9.986;2022-10-19T00:01:02;12.50;99.90
5588;DHT22;2816;49.778;9.986;2022-10-19T00:03:29;12.50;99.90
5588;DHT22;2816;49.778;9.986;2022-10-19T00:05:56;12.40;99.90
5588;DHT22;2816;49.778;9.986;2022-10-19T00:08:23;12.50;99.90
5588;DHT22;2816;49.778;9.986;2022-10-19T00:10:52;12.40;99.90
5588;DHT22;2816;49.778;9.986;2022-10-19T00:13:18;12.40;99.90
5588;DHT22;2816;49.778;9.986;2022-10-19T00:15:46;12.40;99.90
5588;DHT22;2816;49.778;9.986;2022-10-19T00:18:14;12.40;99.90
5588;DHT22;2816;49.778;9.986;2022-10-19T00:20:42;12.40;99.90
5588;DHT22;2816;49.778;9.986;2022-10-19T00:23:10;12.40;99.90
5588;DHT22;2816;49.778;9.986;2022-10-19T00:25:36;12.40;99.90
5588;DHT22;2816;49.778;9.986;2022-10-19T00:28:05;12.40;99.90
5588;DHT22;2816;49.778;9.986;2022-10-19T00:30:35;12.40;99.90
5588;DHT22;2816;49.778;9.986;2022-10-19T00:33:02;12.40;99.90
5588;DHT22;2816;49.778;9.986;2022-10-19T00:35:30;12.30;99.90
5588;DHT22;2816;49.778;9.986;2022-10-19T00:37:57;12.30;99.90
5588;DHT22;2816;49.778;9.986;2022-10-19T00:40:24;12.30;99.90
5588;DHT22;2816;49.778;9.986;2022-10-19T00:42:53;12.30;99.90
5588;DHT22;2816;49.778;9.986;2022-10-19T00:45:23;12.30;99.90
5588;DHT22;2816;49.778;9.986;2022-10-19T00:47:50;12.30;99.90
5588;DHT22;2816;49.778;9.986;2022-10-19T00:50:17;12.30;99.90
5588;DHT22;2816;49.778;9.986;2022-10-19T00:52:45;12.30;99.90
5588;DHT22;2816;49.778;9.986;2022-10-19T00:55:12;12.30;99.90
5588;DHT22;2816;49.778;9.986;2022-10-19T00:57:39;12.30;99.90
5588;DHT22;2816;49.778;9.986;2022-10-19T01:00:09;12.40;99.90
5588;DHT22;2816;49.778;9.986;2022-10-19T01:02:39;12.30;99.90
5588;DHT22;2816;49.778;9.986;2022-10-19T01:05:07;12.30;99.90
5588;DHT22;2816;49.778;9.986;2022-10-19T01:07:34;12.40;99.90
5588;DHT22;2816;49.778;9.986;2022-10-19T01:10:01;12.40;99.90
5588;DHT22;2816;49.778;9.986;2022-10-19T01:12:57;12.30;99.90
5588;DHT22;2816;49.778;9.986;2022-10-19T01:15:31;12.30;99.90
5588;DHT22;2816;49.778;9.986;2022-10-19T01:18:06;12.30;99.90
5588;DHT22;2816;49.778;9.986;2022-10-19T01:21:02;12.30;99.90
5588;DHT22;2816;49.778;9.986;2022-10-19T01:23:54;12.30;99.90
5588;DHT22;2816;49.778;9.986;2022-10-19T01:26:42;12.30;99.90
5588;DHT22;2816;49.778;9.986;2022-10-19T01:29:17;12.40;99.90
5588;DHT22;2816;49.778;9.986;2022-10-19T01:31:48;12.40;99.90
5588;DHT22;2816;49.778;9.986;2022-10-19T01:34:23;12.40;99.90
5588;DHT22;2816;49.778;9.986;2022-10-19T01:36:58;12.40;99.90
5588;DHT22;2816;49.778;9.986;2022-10-19T01:39:32;12.40;99.90
5588;DHT22;2816;49.778;9.986;2022-10-19T01:42:08;12.40;99.90
5588;DHT22;2816;49.778;9.986;2022-10-19T01:44:41;12.40;99.90
5588;DHT22;2816;49.778;9.986;2022-10-19T01:47:15;12.50;99.90
5588;DHT22;2816;49.778;9.986;2022-10-19T01:49:49;12.50;99.90
5588;DHT22;2816;49.778;9.986;2022-10-19T01:52:19;12.50;99.90
5588;DHT22;2816;49.778;9.986;2022-10-19T01:54:49;12.50;99.90
5588;DHT22;2816;49.778;9.986;2022-10-19T01:57:19;12.50;99.90
5588;DHT22;2816;49.778;9.986;2022-10-19T01:59:48;12.50;99.90
5588;DHT22;2816;49.778;9.986;2022-10-19T02:02:17;12.50;99.90
5588;DHT22;2816;49.778;9.986;2022-10-19T02:04:47;12.50;99.90
5588;DHT22;2816;49.778;9.986;2022-10-19T02:07:15;12.50;99.90
5588;DHT22;2816;49.778;9.986;2022-10-19T02:09:42;12.50;99.90
5588;DHT22;2816;49.778;9.986;2022-10-19T02:12:10;12.50;99.90
5588;DHT22;2816;49.778;9.986;2022-10-19T02:14:39;12.50;99.90
5588;DHT22;2816;49.778;9.986;2022-10-19T02:17:11;12.50;99.90
5588;DHT22;2816;49.778;9.986;2022-10-19T02:19:42;12.50;99.90
5588;DHT22;2816;49.778;9.986;2022-10-19T02:22:09;12.50;99.90
5588;DHT22;2816;49.778;9.986;2022-10-19T02:24:37;12.40;99.90
5588;DHT22;2816;49.778;9.986;2022-10-19T02:27:05;12.50;99.90
5588;DHT22;2816;49.778;9.986;2022-10-19T02:29:33;12.50;99.90
5588;DHT22;2816;49.778;9.986;2022-10-19T02:32:02;12.50;99.90
5588;DHT22;2816;49.778;9.986;2022-10-19T02:34:30;12.50;99.90
5588;DHT22;2816;49.778;9.986;2022-10-19T02:36:59;12.40;99.90
5588;DHT22;2816;49.778;9.986;2022-10-19T02:39:26;12.40;99.90
5588;DHT22;2816;49.778;9.986;2022-10-19T02:41:57;12.50;99.90
5588;DHT22;2816;49.778;9.986;2022-10-19T02:44:28;12.50;99.90
5588;DHT22;2816;49.778;9.986;2022-10-19T02:47:01;12.50;99.90
5588;DHT22;2816;49.778;9.986;2022-10-19T02:49:33;12.50;99.90
5588;DHT22;2816;49.778;9.986;2022-10-19T02:52:06;12.50;99.90
5588;DHT22;2816;49.778;9.986;2022-10-19T02:54:33;12.50;99.90
5588;DHT22;2816;49.778;9.986;2022-10-19T02:57:02;12.50;99.90
5588;DHT22;2816;49.778;9.986;2022-10-19T02:59:33;12.50;99.90
5588;DHT22;2816;49.778;9.986;2022-10-19T03:02:00;12.50;99.90
5588;DHT22;2816;49.778;9.986;2022-10-19T03:04:27;12.50;99.90
5588;DHT22;2816;49.778;9.986;2022-10-19T03:06:55;12.60;99.90
5588;DHT22;2816;49.778;9.986;2022-10-19T03:09:23;12.60;99.90
5588;DHT22;2816;49.778;9.986;2022-10-19T03:11:50;12.60;99.90
5588;DHT22;2816;49.778;9.986;2022-10-19T03:14:17;12.60;99.90
5588;DHT22;2816;49.778;9.986;2022-10-19T03:16:43;12.60;99.90
5588;DHT22;2816;49.778;9.986;2022-10-19T03:19:10;12.60;99.90
5588;DHT22;2816;49.778;9.986;2022-10-19T03:21:37;12.60;99.90
5588;DHT22;2816;49.778;9.986;2022-10-19T03:24:05;12.60;99.90
5588;DHT22;2816;49.778;9.986;2022-10-19T03:26:33;12.60;99.90
5588;DHT22;2816;49.778;9.986;2022-10-19T03:29:00;12.60;99.90
5588;DHT22;2816;49.778;9.986;2022-10-19T03:31:27;12.60;99.90
5588;DHT22;2816;49.778;9.986;2022-10-19T03:33:54;12.50;99.90
5588;DHT22;2816;49.778;9.986;2022-10-19T03:36:22;12.60;99.90
5588;DHT22;2816;49.778;9.986;2022-10-19T03:38:50;12.50;99.90
5588;DHT22;2816;49.778;9.986;2022-10-19T03:41:18;12.60;99.90
5588;DHT22;2816;49.778;9.986;2022-10-19T03:43:47;12.60;99.90
5588;DHT22;2816;49.778;9.986;2022-10-19T03:46:14;12.60;99.90
5588;DHT22;2816;49.778;9.986;2022-10-19T03:48:41;12.60;99.90
5588;DHT22;2816;49.778;9.986;2022-10-19T03:51:10;12.60;99.90
5588;DHT22;2816;49.778;9.986;2022-10-19T03:53:38;12.60;99.90
5588;DHT22;2816;49.778;9.986;2022-10-19T03:56:07;12.60;99.90
5588;DHT22;2816;49.778;9.986;2022-10-19T03:58:36;12.60;99.90
5588;DHT22;2816;49.778;9.986;2022-10-19T04:01:09;12.60;99.90
5588;DHT22;2816;49.778;9.986;2022-10-19T04:03:36;12.60;99.90
5588;DHT22;2816;49.778;9.986;2022-10-19T04:06:05;12.60;99.90
5588;DHT22;2816;49.778;9.986;2022-10-19T04:08:32;12.60;99.90
5588;DHT22;2816;49.778;9.986;2022-10-19T04:11:01;12.60;99.90
5588;DHT22;2816;49.778;9.986;2022-10-19T04:13:30;12.60;99.90
5588;DHT22;2816;49.778;9.986;2022-10-19T04:15:57;12.60;99.90
5588;DHT22;2816;49.778;9.986;2022-10-19T04:18:26;12.60;99.90
5588;DHT22;2816;49.778;9.986;2022-10-19T04:20:56;12.60;99.90
5588;DHT22;2816;49.778;9.986;2022-10-19T04:23:26;12.60;99.90
5588;DHT22;2816;49.778;9.986;2022-10-19T04:25:58;12.60;99.90
5588;DHT22;2816;49.778;9.986;2022-10-19T04:28:25;12.60;99.90
5588;DHT22;2816;49.778;9.986;2022-10-19T04:30:54;12.60;99.90
5588;DHT22;2816;49.778;9.986;2022-10-19T04:33:21;12.60;99.90
5588;DHT22;2816;49.778;9.986;2022-10-19T04:35:49;12.60;99.90
5588;DHT22;2816;49.778;9.986;2022-10-19T04:38:16;12.60;99.90
5588;DHT22;2816;49.778;9.986;2022-10-19T04:40:43;12.70;99.90
5588;DHT22;2816;49.778;9.986;2022-10-19T04:43:10;12.60;99.90
5588;DHT22;2816;49.778;9.986;2022-10-19T04:45:37;12.70;99.90
5588;DHT22;2816;49.778;9.986;2022-10-19T04:48:04;12.70;99.90
5588;DHT22;2816;49.778;9.986;2022-10-19T04:50:31;12.70;99.90
5588;DHT22;2816;49.778;9.986;2022-10-19T04:52:59;12.70;99.90
5588;DHT22;2816;49.778;9.986;2022-10-19T04:55:26;12.70;99.90
5588;DHT22;2816;49.778;9.986;2022-10-19T04:57:53;12.70;99.90
5588;DHT22;2816;49.778;9.986;2022-10-19T05:00:20;12.70;99.90
5588;DHT22;2816;49.778;9.986;2022-10-19T05:02:47;12.70;99.90
5588;DHT22;2816;49.778;9.986;2022-10-19T05:05:14;12.70;99.90
5588;DHT22;2816;49.778;9.986;2022-10-19T05:07:41;12.70;99.90
5588;DHT22;2816;49.778;9.986;2022-10-19T05:10:12;12.60;99.90
5588;DHT22;2816;49.778;9.986;2022-10-19T05:12:39;12.60;99.90
5588;DHT22;2816;49.778;9.986;2022-10-19T05:15:07;12.60;99.90
5588;DHT22;2816;49.778;9.986;2022-10-19T05:17:34;12.70;99.90
5588;DHT22;2816;49.778;9.986;2022-10-19T05:20:01;12.70;99.90
5588;DHT22;2816;49.778;9.986;2022-10-19T05:22:28;12.60;99.90
5588;DHT22;2816;49.778;9.986;2022-10-19T05:24:55;12.70;99.90
5588;DHT22;2816;49.778;9.986;2022-10-19T05:27:24;12.60;99.90
5588;DHT22;2816;49.778;9.986;2022-10-19T05:29:50;12.60;99.90
5588;DHT22;2816;49.778;9.986;2022-10-19T05:32:17;12.60;99.90
5588;DHT22;2816;49.778;9.986;2022-10-19T05:34:44;12.60;99.90
5588;DHT22;2816;49.778;9.986;2022-10-19T05:37:11;12.60;99.90
5588;DHT22;2816;49.778;9.986;2022-10-19T05:39:38;12.50;99.90
5588;DHT22;2816;49.778;9.986;2022-10-19T05:42:05;12.60;99.90
5588;DHT22;2816;49.778;9.986;2022-10-19T05:44:33;12.60;99.90
5588;DHT22;2816;49.778;9.986;2022-10-19T05:47:01;12.50;99.90
5588;DHT22;2816;49.778;9.986;2022-10-19T05:49:28;12.60;99.90
5588;DHT22;2816;49.778;9.986;2022-10-19T05:51:55;12.60;99.90
5588;DHT22;2816;49.778;9.986;2022-10-19T05:54:22;12.60;99.90
5588;DHT22;2816;49.778;9.986;2022-10-19T05:56:50;12.60;99.90
5588;DHT22;2816;49.778;9.986;2022-10-19T05:59:19;12.60;99.90
5588;DHT22;2816;49.778;9.986;2022-10-19T06:01:48;12.50;99.90
5588;DHT22;2816;49.778;9.986;2022-10-19T06:04:15;12.50;99.90
5588;DHT22;2816;49.778;9.986;2022-10-19T06:06:42;12.50;99.90
5588;DHT22;2816;49.778;9.986;2022-10-19T06:09:10;12.50;99.90
5588;DHT22;2816;49.778;9.986;2022-10-19T06:11:39;12.60;99.90
5588;DHT22;2816;49.778;9.986;2022-10-19T06:14:11;12.60;99.90
5588;DHT22;2816;49.778;9.986;2022-10-19T06:16:38;12.50;99.90
5588;DHT22;2816;49.778;9.986;2022-10-19T06:19:07;12.50;99.90
5588;DHT22;2816;49.778;9.986;2022-10-19T06:21:34;12.50;99.90
5588;DHT22;2816;49.778;9.986;2022-10-19T06:24:03;12.60;99.90
5588;DHT22;2816;49.778;9.986;2022-10-19T06:26:32;12.50;99.90
5588;DHT22;2816;49.778;9.986;2022-10-19T06:29:00;12.60;99.90
5588;DHT22;2816;49.778;9.986;2022-10-19T06:31:28;12.60;99.90
5588;DHT22;2816;49.778;9.986;2022-10-19T06:33:55;12.60;99.90
5588;DHT22;2816;49.778;9.986;2022-10-19T06:36:26;12.70;99.90
5588;DHT22;2816;49.778;9.986;2022-10-19T06:38:53;12.70;99.90
5588;DHT22;2816;49.778;9.986;2022-10-19T06:41:21;12.60;99.90
5588;DHT22;2816;49.778;9.986;2022-10-19T06:43:49;12.70;99.90
5588;DHT22;2816;49.778;9.986;2022-10-19T06:46:17;12.60;99.90
5588;DHT22;2816;49.778;9.986;2022-10-19T06:48:49;12.60;99.90
5588;DHT22;2816;49.778;9.986;2022-10-19T06:51:16;12.60;99.90
5588;DHT22;2816;49.778;9.986;2022-10-19T06:53:44;12.60;99.90
5588;DHT22;2816;49.778;9.986;2022-10-19T06:56:11;12.60;99.90
5588;DHT22;2816;49.778;9.986;2022-10-19T06:58:38;12.60;99.90
5588;DHT22;2816;49.778;9.986;2022-10-19T07:01:07;12.60;99.90
5588;DHT22;2816;49.778;9.986;2022-10-19T07:03:35;12.60;99.90
5588;DHT22;2816;49.778;9.986;2022-10-19T07:06:04;12.70;99.90
5588;DHT22;2816;49.778;9.986;2022-10-19T07:08:32;12.60;99.90
5588;DHT22;2816;49.778;9.986;2022-10-19T07:11:02;12.60;99.90
5588;DHT22;2816;49.778;9.986;2022-10-19T07:13:29;12.50;99.90
5588;DHT22;2816;49.778;9.986;2022-10-19T07:15:57;12.50;99.90
5588;DHT22;2816;49.778;9.986;2022-10-19T07:18:24;12.60;99.90
5588;DHT22;2816;49.778;9.986;2022-10-19T07:20:55;12.60;99.90
5588;DHT22;2816;49.778;9.986;2022-10-19T07:23:23;12.50;99.90
5588;DHT22;2816;49.778;9.986;2022-10-19T07:25:50;12.50;99.90
5588;DHT22;2816;49.778;9.986;2022-10-19T07:28:20;12.60;99.90
5588;DHT22;2816;49.778;9.986;2022-10-19T07:30:47;12.60;99.90
5588;DHT22;2816;49.778;9.986;2022-10-19T07:33:15;12.50;99.90
5588;DHT22;2816;49.778;9.986;2022-10-19T07:35:42;12.60;99.90
5588;DHT22;2816;49.778;9.986;2022-10-19T07:38:09;12.50;99.90
5588;DHT22;2816;49.778;9.986;2022-10-19T07:40:35;12.50;99.90
5588;DHT22;2816;49.778;9.986;2022-10-19T07:43:03;12.40;99.90
5588;DHT22;2816;49.778;9.986;2022-10-19T07:45:31;12.40;99.90
5588;DHT22;2816;49.778;9.986;2022-10-19T07:47:59;12.40;99.90
5588;DHT22;2816;49.778;9.986;2022-10-19T07:50:26;12.40;99.90
5588;DHT22;2816;49.778;9.986;2022-10-19T07:52:54;12.40;99.90
5588;DHT22;2816;49.778;9.986;2022-10-19T07:55:21;12.40;99.90
5588;DHT22;2816;49.778;9.986;2022-10-19T07:57:48;12.40;99.90
5588;DHT22;2816;49.778;9.986;2022-10-19T08:00:16;12.40;99.90
5588;DHT22;2816;49.778;9.986;2022-10-19T08:02:44;12.50;99.90
5588;DHT22;2816;49.778;9.986;2022-10-19T08:05:11;12.50;99.90
5588;DHT22;2816;49.778;9.986;2022-10-19T08:07:38;12.50;99.90
5588;DHT22;2816;49.778;9.986;2022-10-19T08:10:06;12.60;99.90
5588;DHT22;2816;49.778;9.986;2022-10-19T08:12:35;12.60;99.90
5588;DHT22;2816;49.778;9.986;2022-10-19T08:15:03;12.50;99.90
5588;DHT22;2816;49.778;9.986;2022-10-19T08:17:33;12.50;99.90
5588;DHT22;2816;49.778;9.986;2022-10-19T08:20:03;12.50;99.90
5588;DHT22;2816;49.778;9.986;2022-10-19T08:22:31;12.60;99.90
5588;DHT22;2816;49.778;9.986;2022-10-19T08:24:58;12.60;99.90
5588;DHT22;2816;49.778;9.986;2022-10-19T08:27:25;12.60;99.90
5588;DHT22;2816;49.778;9.986;2022-10-19T08:29:53;12.60;99.90
5588;DHT22;2816;49.778;9.986;2022-10-19T08:32:20;12.60;99.90
5588;DHT22;2816;49.778;9.986;2022-10-19T08:34:47;12.60;99.90
5588;DHT22;2816;49.778;9.986;2022-10-19T08:37:15;12.60;99.90
5588;DHT22;2816;49.778;9.986;2022-10-19T08:39:42;12.60;99.90
5588;DHT22;2816;49.778;9.986;2022-10-19T08:42:15;12.70;99.90
5588;DHT22;2816;49.778;9.986;2022-10-19T08:45:16;12.60;99.90
5588;DHT22;2816;49.778;9.986;2022-10-19T08:47:54;12.70;99.90
5588;DHT22;2816;49.778;9.986;2022-10-19T08:50:26;12.60;99.90
5588;DHT22;2816;49.778;9.986;2022-10-19T08:53:00;12.70;99.90
5588;DHT22;2816;49.778;9.986;2022-10-19T08:55:34;12.60;99.90
5588;DHT22;2816;49.778;9.986;2022-10-19T08:58:12;12.60;99.90
5588;DHT22;2816;49.778;9.986;2022-10-19T09:00:49;12.70;99.90
5588;DHT22;2816;49.778;9.986;2022-10-19T09:03:24;12.70;99.90
5588;DHT22;2816;49.778;9.986;2022-10-19T09:05:57;12.70;99.90
5588;DHT22;2816;49.778;9.986;2022-10-19T09:08:27;12.70;99.90
5588;DHT22;2816;49.778;9.986;2022-10-19T09:10:54;12.70;99.90
5588;DHT22;2816;49.778;9.986;2022-10-19T09:13:34;12.70;99.90
5588;DHT22;2816;49.778;9.986;2022-10-19T09:16:03;12.80;99.90
5588;DHT22;2816;49.778;9.986;2022-10-19T09:18:32;12.70;99.90
5588;DHT22;2816;49.778;9.986;2022-10-19T09:21:03;12.80;99.90
5588;DHT22;2816;49.778;9.986;2022-10-19T09:23:35;12.70;99.90
5588;DHT22;2816;49.778;9.986;2022-10-19T09:26:07;12.80;99.90
5588;DHT22;2816;49.778;9.986;2022-10-19T09:28:46;12.80;99.90
5588;DHT22;2816;49.778;9.986;2022-10-19T09:31:21;12.90;99.90
5588;DHT22;2816;49.778;9.986;2022-10-19T09:33:53;12.90;99.90
5588;DHT22;2816;49.778;9.986;2022-10-19T09:36:23;12.90;99.90
5588;DHT22;2816;49.778;9.986;2022-10-19T09:38:53;12.90;99.90
5588;DHT22;2816;49.778;9.986;2022-10-19T09:41:21;12.80;99.90
5588;DHT22;2816;49.778;9.986;2022-10-19T09:43:51;12.80;99.90
5588;DHT22;2816;49.778;9.986;2022-10-19T09:46:34;12.90;99.90
5588;DHT22;2816;49.778;9.986;2022-10-19T09:49:03;12.90;99.90
5588;DHT22;2816;49.778;9.986;2022-10-19T09:51:45;12.90;99.90
5588;DHT22;2816;49.778;9.986;2022-10-19T09:54:32;12.90;99.90
5588;DHT22;2816;49.778;9.986;2022-10-19T09:57:00;12.90;99.90
5588;DHT22;2816;49.778;9.986;2022-10-19T09:59:29;12.90;99.90
5588;DHT22;2816;49.778;9.986;2022-10-19T10:02:09;12.90;99.90
5588;DHT22;2816;49.778;9.986;2022-10-19T10:04:38;12.90;99.90
5588;DHT22;2816;49.778;9.986;2022-10-19T10:07:05;12.90;99.90
5588;DHT22;2816;49.778;9.986;2022-10-19T10:09:37;12.90;99.90
5588;DHT22;2816;49.778;9.986;2022-10-19T10:12:05;12.90;99.90
5588;DHT22;2816;49.778;9.986;2022-10-19T10:14:34;12.90;99.90
5588;DHT22;2816;49.778;9.986;2022-10-19T10:17:06;12.90;99.90
5588;DHT22;2816;49.778;9.986;2022-10-19T10:19:49;12.90;99.90
5588;DHT22;2816;49.778;9.986;2022-10-19T10:22:24;12.80;99.90
5588;DHT22;2816;49.778;9.986;2022-10-19T10:24:55;12.90;99.90
5588;DHT22;2816;49.778;9.986;2022-10-19T10:27:31;12.90;99.90
5588;DHT22;2816;49.778;9.986;2022-10-19T10:29:58;12.90;99.90
5588;DHT22;2816;49.778;9.986;2022-10-19T10:32:36;13.00;99.90
5588;DHT22;2816;49.778;9.986;2022-10-19T10:35:06;12.90;99.90
5588;DHT22;2816;49.778;9.986;2022-10-19T10:37:37;12.90;99.90
5588;DHT22;2816;49.778;9.986;2022-10-19T10:40:17;12.90;99.90
5588;DHT22;2816;49.778;9.986;2022-10-19T10:42:46;12.90;99.90
5588;DHT22;2816;49.778;9.986;2022-10-19T10:45:17;12.90;99.90
5588;DHT22;2816;49.778;9.986;2022-10-19T10:47:46;13.00;99.90
5588;DHT22;2816;49.778;9.986;2022-10-19T10:50:20;13.00;99.90
5588;DHT22;2816;49.778;9.986;2022-10-19T10:53:00;13.10;99.90
5588;DHT22;2816;49.778;9.986;2022-10-19T10:55:29;13.00;99.90
5588;DHT22;2816;49.778;9.986;2022-10-19T10:58:07;13.00;99.90
5588;DHT22;2816;49.778;9.986;2022-10-19T11:00:37;13.10;99.90
5588;DHT22;2816;49.778;9.986;2022-10-19T11:03:09;13.10;99.90
5588;DHT22;2816;49.778;9.986;2022-10-19T11:05:40;13.10;99.90
5588;DHT22;2816;49.778;9.986;2022-10-19T11:08:17;13.10;99.90
5588;DHT22;2816;49.778;9.986;2022-10-19T11:10:51;13.20;99.90
5588;DHT22;2816;49.778;9.986;2022-10-19T11:13:25;13.10;99.90
5588;DHT22;2816;49.778;9.986;2022-10-19T11:15:54;13.10;99.90
5588;DHT22;2816;49.778;9.986;2022-10-19T11:18:26;13.10;99.90
5588;DHT22;2816;49.778;9.986;2022-10-19T11:21:01;13.20;99.90
5588;DHT22;2816;49.778;9.986;2022-10-19T11:23:39;13.20;99.90
5588;DHT22;2816;49.778;9.986;2022-10-19T11:29:17;13.20;99.90
5588;DHT22;2816;49.778;9.986;2022-10-19T11:31:52;13.20;99.90
5588;DHT22;2816;49.778;9.986;2022-10-19T11:34:34;13.10;99.90
5588;DHT22;2816;49.778;9.986;2022-10-19T11:37:13;13.10;99.90
5588;DHT22;2816;49.778;9.986;2022-10-19T11:39:49;13.10;99.90
5588;DHT22;2816;49.778;9.986;2022-10-19T11:42:23;13.20;99.90
5588;DHT22;2816;49.778;9.986;2022-10-19T11:45:01;13.20;99.90
5588;DHT22;2816;49.778;9.986;2022-10-19T11:50:31;13.20;99.90
5588;DHT22;2816;49.778;9.986;2022-10-19T11:53:06;13.30;99.90
5588;DHT22;2816;49.778;9.986;2022-10-19T11:55:40;13.30;99.90
5588;DHT22;2816;49.778;9.986;2022-10-19T11:58:23;13.40;99.90
5588;DHT22;2816;49.778;9.986;2022-10-19T12:00:59;13.40;99.90
5588;DHT22;2816;49.778;9.986;2022-10-19T12:03:50;13.40;99.90
5588;DHT22;2816;49.778;9.986;2022-10-19T12:06:28;13.40;99.90
5588;DHT22;2816;49.778;9.986;2022-10-19T12:09:08;13.40;99.90
5588;DHT22;2816;49.778;9.986;2022-10-19T12:11:46;13.40;99.90
5588;DHT22;2816;49.778;9.986;2022-10-19T12:14:17;13.40;99.90
5588;DHT22;2816;49.778;9.986;2022-10-19T12:16:51;13.40;99.90
5588;DHT22;2816;49.778;9.986;2022-10-19T12:19:22;13.50;99.90
5588;DHT22;2816;49.778;9.986;2022-10-19T12:21:52;13.40;99.90
5588;DHT22;2816;49.778;9.986;2022-10-19T12:24:23;13.50;99.90
5588;DHT22;2816;49.778;9.986;2022-10-19T12:26:52;13.40;99.90
5588;DHT22;2816;49.778;9.986;2022-10-19T12:29:22;13.40;99.90
5588;DHT22;2816;49.778;9.986;2022-10-19T12:31:52;13.50;99.90
5588;DHT22;2816;49.778;9.986;2022-10-19T12:34:26;13.40;99.90
5588;DHT22;2816;49.778;9.986;2022-10-19T12:37:01;13.40;99.90
5588;DHT22;2816;49.778;9.986;2022-10-19T12:39:38;13.40;99.90
5588;DHT22;2816;49.778;9.986;2022-10-19T12:42:14;13.40;99.90
5588;DHT22;2816;49.778;9.986;2022-10-19T12:45:13;13.40;99.90
5588;DHT22;2816;49.778;9.986;2022-10-19T12:51:07;13.50;99.90
5588;DHT22;2816;49.778;9.986;2022-10-19T12:53:38;13.50;99.90
5588;DHT22;2816;49.778;9.986;2022-10-19T12:56:09;13.50;99.90
5588;DHT22;2816;49.778;9.986;2022-10-19T12:58:44;13.60;99.90
5588;DHT22;2816;49.778;9.986;2022-10-19T13:01:16;13.60;99.90
5588;DHT22;2816;49.778;9.986;2022-10-19T13:03:43;13.60;99.90
5588;DHT22;2816;49.778;9.986;2022-10-19T13:06:16;13.70;99.90
5588;DHT22;2816;49.778;9.986;2022-10-19T13:08:47;13.60;99.90
5588;DHT22;2816;49.778;9.986;2022-10-19T13:11:20;13.60;99.90
5588;DHT22;2816;49.778;9.986;2022-10-19T13:14:02;13.70;99.90
5588;DHT22;2816;49.778;9.986;2022-10-19T13:17:01;13.70;99.90
5588;DHT22;2816;49.778;9.986;2022-10-19T13:19:29;13.70;99.90
5588;DHT22;2816;49.778;9.986;2022-10-19T13:25:20;13.70;99.90
5588;DHT22;2816;49.778;9.986;2022-10-19T13:27:49;13.80;99.90
5588;DHT22;2816;49.778;9.986;2022-10-19T13:36:20;13.70;99.90
5588;DHT22;2816;49.778;9.986;2022-10-19T13:39:13;13.80;99.90
5588;DHT22;2816;49.778;9.986;2022-10-19T13:41:51;13.70;99.90
5588;DHT22;2816;49.778;9.986;2022-10-19T13:44:26;13.80;99.90
5588;DHT22;2816;49.778;9.986;2022-10-19T13:47:07;13.80;99.90
5588;DHT22;2816;49.778;9.986;2022-10-19T13:49:54;13.80;99.90
5588;DHT22;2816;49.778;9.986;2022-10-19T13:52:42;13.90;99.90
5588;DHT22;2816;49.778;9.986;2022-10-19T13:55:27;13.90;99.90
5588;DHT22;2816;49.778;9.986;2022-10-19T13:58:30;13.90;99.90
5588;DHT22;2816;49.778;9.986;2022-10-19T14:01:11;13.90;99.90
5588;DHT22;2816;49.778;9.986;2022-10-19T14:04:00;13.90;99.90
5588;DHT22;2816;49.778;9.986;2022-10-19T14:06:38;13.90;99.90
5588;DHT22;2816;49.778;9.986;2022-10-19T14:09:34;13.90;99.90
5588;DHT22;2816;49.778;9.986;2022-10-19T14:12:08;13.90;99.90
5588;DHT22;2816;49.778;9.986;2022-10-19T14:14:42;13.90;99.90
5588;DHT22;2816;49.778;9.986;2022-10-19T14:17:17;13.90;99.90
5588;DHT22;2816;49.778;9.986;2022-10-19T14:19:47;14.00;99.90
5588;DHT22;2816;49.778;9.986;2022-10-19T14:22:21;14.00;99.90
5588;DHT22;2816;49.778;9.986;2022-10-19T14:24:49;14.00;99.90
5588;DHT22;2816;49.778;9.986;2022-10-19T14:27:21;14.00;99.90
5588;DHT22;2816;49.778;9.986;2022-10-19T14:29:55;14.10;99.90
5588;DHT22;2816;49.778;9.986;2022-10-19T14:32:25;14.10;99.90
5588;DHT22;2816;49.778;9.986;2022-10-19T14:34:53;14.10;99.90
5588;DHT22;2816;49.778;9.986;2022-10-19T14:37:24;14.10;99.90
5588;DHT22;2816;49.778;9.986;2022-10-19T14:40:02;14.10;99.90
5588;DHT22;2816;49.778;9.986;2022-10-19T14:42:41;14.10;99.90
5588;DHT22;2816;49.778;9.986;2022-10-19T14:45:23;14.20;99.90
5588;DHT22;2816;49.778;9.986;2022-10-19T14:47:55;14.20;99.90
5588;DHT22;2816;49.778;9.986;2022-10-19T14:50:38;14.20;99.90
5588;DHT22;2816;49.778;9.986;2022-10-19T14:53:20;14.20;99.90
5588;DHT22;2816;49.778;9.986;2022-10-19T14:55:49;14.30;99.90
5588;DHT22;2816;49.778;9.986;2022-10-19T14:58:18;14.30;99.90
5588;DHT22;2816;49.778;9.986;2022-10-19T15:00:49;14.30;99.90
5588;DHT22;2816;49.778;9.986;2022-10-19T15:03:21;14.30;99.90
5588;DHT22;2816;49.778;9.986;2022-10-19T15:05:53;14.30;99.90
5588;DHT22;2816;49.778;9.986;2022-10-19T15:08:30;14.30;99.90
5588;DHT22;2816;49.778;9.986;2022-10-19T15:10:59;14.20;99.90
5588;DHT22;2816;49.778;9.986;2022-10-19T15:13:29;14.30;99.90
5588;DHT22;2816;49.778;9.986;2022-10-19T15:15:58;14.30;99.90
5588;DHT22;2816;49.778;9.986;2022-10-19T15:18:31;14.30;99.90
5588;DHT22;2816;49.778;9.986;2022-10-19T15:21:01;14.30;99.90
5588;DHT22;2816;49.778;9.986;2022-10-19T15:23:33;14.30;99.90
5588;DHT22;2816;49.778;9.986;2022-10-19T15:26:12;14.30;99.90
5588;DHT22;2816;49.778;9.986;2022-10-19T15:28:40;14.30;99.90
5588;DHT22;2816;49.778;9.986;2022-10-19T15:31:16;14.30;99.90
5588;DHT22;2816;49.778;9.986;2022-10-19T15:33:46;14.30;99.90
5588;DHT22;2816;49.778;9.986;2022-10-19T15:36:15;14.20;99.90
5588;DHT22;2816;49.778;9.986;2022-10-19T15:38:45;14.20;99.90
5588;DHT22;2816;49.778;9.986;2022-10-19T15:41:17;14.20;99.90
5588;DHT22;2816;49.778;9.986;2022-10-19T15:43:46;14.10;99.90
5588;DHT22;2816;49.778;9.986;2022-10-19T15:46:26;14.00;99.90
5588;DHT22;2816;49.778;9.986;2022-10-19T15:48:57;14.00;99.90
5588;DHT22;2816;49.778;9.986;2022-10-19T15:51:43;14.00;99.90
5588;DHT22;2816;49.778;9.986;2022-10-19T15:54:11;14.00;99.90
5588;DHT22;2816;49.778;9.986;2022-10-19T15:56:40;14.00;99.90
5588;DHT22;2816;49.778;9.986;2022-10-19T15:59:12;14.00;99.90
5588;DHT22;2816;49.778;9.986;2022-10-19T16:01:42;14.00;99.90
5588;DHT22;2816;49.778;9.986;2022-10-19T16:04:09;14.00;99.90
5588;DHT22;2816;49.778;9.986;2022-10-19T16:06:38;13.90;99.90
5588;DHT22;2816;49.778;9.986;2022-10-19T16:09:07;13.90;99.90
5588;DHT22;2816;49.778;9.986;2022-10-19T16:11:37;13.80;99.90
5588;DHT22;2816;49.778;9.986;2022-10-19T16:14:04;13.80;99.90
5588;DHT22;2816;49.778;9.986;2022-10-19T16:16:32;13.80;99.90
5588;DHT22;2816;49.778;9.986;2022-10-19T16:19:00;13.70;99.90
5588;DHT22;2816;49.778;9.986;2022-10-19T16:21:29;13.70;99.90
5588;DHT22;2816;49.778;9.986;2022-10-19T16:23:56;13.60;99.90
5588;DHT22;2816;49.778;9.986;2022-10-19T16:26:24;13.50;99.90
5588;DHT22;2816;49.778;9.986;2022-10-19T16:28:51;13.40;99.90
5588;DHT22;2816;49.778;9.986;2022-10-19T16:31:19;13.40;99.90
5588;DHT22;2816;49.778;9.986;2022-10-19T16:33:45;13.30;99.90
5588;DHT22;2816;49.778;9.986;2022-10-19T16:36:14;13.30;99.90
5588;DHT22;2816;49.778;9.986;2022-10-19T16:38:43;13.20;99.90
5588;DHT22;2816;49.778;9.986;2022-10-19T16:41:10;13.10;99.90
5588;DHT22;2816;49.778;9.986;2022-10-19T16:43:37;13.00;99.90
5588;DHT22;2816;49.778;9.986;2022-10-19T16:46:05;13.00;99.90